Abbeville, Georgia
Current Conditions -  °F | °C
As of 10:35 AM on Sunday 23 Nov 2014 (Local Time) from KEZM Reporting Station
Drizzle Drizzle  
Wind Chill: 62°   Ceiling: 500
Heat Index: 62°   Visibility: 4mi
Dew Point: 62°   Wind: 3mph
Humidity: 100%   Direction: 140°SE
Pressure: 30.01"   Gusts: NA
Location:  31.99°N, 83.31°W
Report Text: KEZM 231535Z AUTO 14003KT 4SM DZ OVC005 17/17 A3001 RMK AO2 LTG DSNT W T01680168
Loading
Personal Weather Stations






























Interactive Weather Map New forecast layout! Learn more

10-Day Weather Forecast

Advertisements
Track Severe Weather on mobile